This is the latest recevied weather packets stored in our database for station/object LRIA. If no packets are shown the sender has not sent any weather packets the latest 10 day(s).
| Time | Temp. | Humidity | Pressure | Rain* | Wind** | Luminosity | Snow |
|---|---|---|---|---|---|---|---|
| 1777536204 | 10° C | 47% | 1026 hPa | - | - | - | - |
| 1777535301 | 7.78° C | 46% | 1026 hPa | - | - | - | - |
| 1777534404 | 7.78° C | 46% | 1026 hPa | - | - | - | - |
| 1777533500 | 7.22° C | 53% | 1026 hPa | - | - | - | - |
| 1777532603 | 7.22° C | 53% | 1026 hPa | - | - | - | - |
| 1777531703 | 6.11° C | 53% | 1026 hPa | - | - | - | - |
| 1777530803 | 6.11° C | 53% | 1026 hPa | - | - | - | - |
| 1777529903 | 5° C | 57% | 1026 hPa | - | - | - | - |
| 1777529003 | 5° C | 57% | 1026 hPa | - | - | - | - |
| 1777528104 | 5° C | 57% | 1026 hPa | - | - | - | - |
| 1777527204 | 5° C | 57% | 1026 hPa | - | - | - | - |
| 1777526303 | 3.89° C | 61% | 1026 hPa | - | - | - | - |
| 1777525403 | 3.89° C | 61% | 1026 hPa | - | - | - | - |
| 1777524503 | 3.89° C | 61% | 1026 hPa | - | - | - | - |
| 1777523604 | 3.89° C | 61% | 1026 hPa | - | - | - | - |
| 1777522703 | 2.78° C | 65% | 1025 hPa | - | - | - | - |
| 1777521803 | 2.78° C | 65% | 1025 hPa | - | - | - | - |
| 1777520904 | 2.78° C | 65% | 1025 hPa | - | - | - | - |
| 1777520003 | 2.78° C | 65% | 1025 hPa | - | - | - | - |
| 1777519105 | 2.78° C | 65% | 1025 hPa | - | - | - | - |
| 1777518203 | 2.78° C | 65% | 1025 hPa | - | - | - | - |
| 1777517304 | 3.89° C | 56% | 1025 hPa | - | - | - | - |
| 1777516404 | 3.89° C | 56% | 1025 hPa | - | - | - | - |
| 1777515503 | 5° C | 53% | 1024 hPa | - | - | - | - |
| 1777514603 | 5° C | 53% | 1024 hPa | - | - | - | - |
* Rain since midnight (hover to see other rain measurements)
** Current wind speed in m/s (hover to see current wind gust speed)